21-й км

Карта отелей и гостиниц, располагающихся рядом с аэропортом 21-й км :

21-й км Чукотский автономный округ 69° 36' 7.9704" N, 170° 44' 1.9392" E
21-й км Чукотский автономный округ 69° 36' 7.9704" N, 170° 44' 1.9392" E
Код аэродрома ИКАО
HE75
Код аэродрома RU
ХЕ75
Координаты
N69.60221° E170.73387°
Превышение над уровнем моря
172
Основная полоса
02/20
Курс магнитный
023,9/203,9
Длина основной ВПП
51
Ширина основной ВПП
40
Покрытие основной ВПП
Твёрдое
Освещение ВПП
Нет
Тип: 
Вертодром
Класс аэродрома: 
Принадлежность: 
АОН
Статус: 
Действующий
Сайт: 
E-mail аэродрома: 
Страна: 
Россия
Регион: 
Чукотский автономный округ
Город: 
Дополнительная информация: 
Владелец ПП: «Чукотская Горно-Геологическая компания», структурное подразделение компании «Кинросс Дальний Восток».

Найти трансфер

С помощью этой формы Вы можете найти трансфер из аэропорта 21-й км в город, аэропорт или вокзал:

Карта места

Javascript is required to view this map.

Погода в аэропортах:

Авиационная погода в аэропорту Новый

Регион: 
Погода METAR: 
UHHH 130900Z 28004MPS 250V310 1100 1000SW R23R/1100N SHSN VV004 M02/M02 Q1000 R23R/290245 TEMPO 0500 +SHSN RMK QBB120 QFE744/0992
Время наблюдения
2021-04-13T09:00:00Z
Температура C
-2.0
Точка росы
-2.0
Направление ветра
280
Скорость ветра (узлы)
8
Метео видимость
0.68
Явления погоды
SHSN
Условия полета
LIFR
Аэропорт подробнее: 

Авиационная погода в аэропорту Алыкель

Регион: 
Погода METAR: 
UOOO 130900Z 26008MPS 1200 1100NE R19/1300D SN BLSN OVC007 M03/M04 Q0995 R19/650542 NOSIG RMK QFE730/0974
Время наблюдения
2021-04-13T09:00:00Z
Температура C
-3.0
Точка росы
-4.0
Направление ветра
260
Скорость ветра (узлы)
16
Метео видимость
0.75
Явления погоды
BLSN SN
Условия полета
LIFR
Аэропорт подробнее: 

Авиационная погода в Угольном

Регион: 
Погода METAR: 
UHMA 130900Z 34006MPS 3800 -SN DRSN SCT020 BKN030 BKN045 M12/M14 Q1008 R01/////// NOSIG RMK TDZ R01/34006G07MPS END R01/34004G07MPS QFE753/1004
Время наблюдения
2021-04-13T09:00:00Z
Температура C
-12.0
Точка росы
-14.0
Направление ветра
340
Скорость ветра (узлы)
12
Метео видимость
2.36
Явления погоды
-SN DRSN
Условия полета
IFR
Аэропорт подробнее: 

Авиационная погода в Хомутово

Регион: 
Погода METAR: 
UHSS 130900Z 17004MPS 9000 -SHRA SCT008 BKN027CB 07/06 Q0998 R19/250255 NOSIG RMK MT OBSC QFE747/0997
Время наблюдения
2021-04-13T09:00:00Z
Температура C
7.0
Точка росы
6.0
Направление ветра
170
Скорость ветра (узлы)
8
Метео видимость
5.59
Явления погоды
-SHRA
Условия полета
MVFR
Аэропорт подробнее: